Time;durP1;ratioP1;P1;durP2;ratioP2;P2;SDS_P1;SDS_P2;PMS_P1;PMS_P2;Temp;Humidity;BMP_temperature;BMP_pressure;BME280_temperature;BME280_humidity;BME280_pressure;Samples;Min_cycle;Max_cycle;Signal;HPM_P1;HPM_P2
2023/04/26 00:00:12;;;;;;;;;;;11.70;91.40;12.10;99514.00;;;;338824;28;91998;-92
2023/04/26 00:00:24;;;;;;;;;;;11.70;91.40;12.00;99524.00;;;;337576;28;94268;-92
2023/04/26 00:00:35;;;;;;;;;;;11.70;91.50;12.00;99525.00;;;;338847;28;91953;-92
2023/04/26 00:00:47;;;;;;;;;;;11.70;91.60;12.00;99520.00;;;;335155;29;96057;-92
2023/04/26 00:01:05;;;;;;;;;;;11.70;91.70;11.90;99525.00;;;;336175;28;91296;-92
2023/04/26 00:01:17;;;;;;;;;;;11.70;91.80;12.00;99522.00;;;;337816;28;94070;-93
2023/04/26 00:01:29;;;;;;;;;;;11.60;91.70;12.00;99517.00;;;;334881;29;91104;-93
2023/04/26 00:01:41;;;;;;;;;;;11.60;91.70;12.00;99528.00;;;;337588;28;94076;-92
2023/04/26 00:01:53;;;;;;;;;;;11.70;91.70;12.00;99521.00;;;;336187;28;91220;-93
2023/04/26 00:02:05;;;;;;;;;;;11.60;91.60;11.90;99524.00;;;;336397;28;94952;-92
2023/04/26 00:02:17;;;;;;;;;;;11.60;91.80;11.90;99523.00;;;;336173;28;91990;-92
2023/04/26 00:02:29;;;;;;;;;;;11.60;91.70;11.90;99532.00;;;;335132;29;95066;-92
2023/04/26 00:02:41;;;;;;;;;;;11.60;91.70;12.00;99526.00;;;;337568;28;91936;-92
2023/04/26 00:02:54;;;;;;;;;;;11.60;91.70;11.90;99531.00;;;;339113;28;93575;-92
2023/04/26 00:03:06;;;;;;;;;;;11.60;91.90;11.90;99522.00;;;;337165;28;91429;-92
2023/04/26 00:03:19;;;;;;;;;;;11.60;91.90;11.80;99525.00;;;;339180;28;93513;-92
2023/04/26 00:03:31;;;;;;;;;;;11.60;91.90;11.80;99529.00;;;;336229;28;91985;-92
2023/04/26 00:03:44;;;;;;;;;;;11.60;92.00;11.90;99528.00;;;;339034;28;95176;-92
2023/04/26 00:03:56;;;;;;;;;;;11.60;92.10;11.80;99525.00;;;;337549;28;91226;-93
2023/04/26 00:04:10;;;;;;;;;;;11.60;92.20;11.80;99533.00;;;;335145;29;94451;-92
2023/04/26 00:04:23;;;;;;;;;;;11.60;92.20;11.90;99533.00;;;;335785;28;92052;-92
2023/04/26 00:04:37;;;;;;;;;;;11.60;92.20;11.80;99531.00;;;;336391;28;95339;-92
2023/04/26 00:04:57;;;;;;;;;;;11.60;92.30;11.90;99530.00;;;;336202;28;91951;-92
2023/04/26 00:05:09;;;;;;;;;;;11.60;92.30;11.80;99533.00;;;;337787;28;95346;-92
2023/04/26 00:05:24;;;;;;;;;;;11.60;92.30;11.70;99525.00;;;;337533;28;91187;-92
2023/04/26 00:05:36;;;;;;;;;;;11.50;92.40;11.80;99522.00;;;;337820;28;95248;-92
2023/04/26 00:05:49;;;;;;;;;;;11.50;92.30;11.80;99534.00;;;;337371;28;91230;-92
2023/04/26 00:06:04;;;;;;;;;;;11.50;92.30;11.80;99525.00;;;;337695;28;95812;-92
2023/04/26 00:06:16;;;;;;;;;;;11.50;92.60;11.90;99531.00;;;;337525;28;91173;-93
2023/04/26 00:06:30;;;;;;;;;;;11.50;92.50;11.90;99530.00;;;;335128;28;95927;-92
2023/04/26 00:06:42;;;;;;;;;;;11.50;92.50;11.90;99530.00;;;;336186;28;91970;-92
2023/04/26 00:06:54;;;;;;;;;;;11.50;92.40;11.80;99528.00;;;;340471;28;95608;-93
2023/04/26 00:07:06;;;;;;;;;;;11.50;92.50;11.80;99533.00;;;;337234;28;92336;-92
2023/04/26 00:07:19;;;;;;;;;;;11.50;92.60;11.90;99537.00;;;;337801;28;94860;-93
2023/04/26 00:07:30;;;;;;;;;;;11.50;92.50;11.80;99534.00;;;;336189;28;90421;-92
2023/04/26 00:07:43;;;;;;;;;;;11.50;92.50;11.80;99520.00;;;;338892;28;93019;-92
2023/04/26 00:07:55;;;;;;;;;;;11.50;92.60;11.80;99531.00;;;;337538;28;92040;-92
2023/04/26 00:08:08;;;;;;;;;;;11.60;92.80;11.80;99531.00;;;;339056;28;94866;-93
2023/04/26 00:08:19;;;;;;;;;;;11.60;92.50;11.70;99529.00;;;;338752;28;92026;-92
2023/04/26 00:08:31;;;;;;;;;;;11.50;92.70;11.70;99527.00;;;;340322;28;96102;-92
2023/04/26 00:08:43;;;;;;;;;;;11.50;92.80;11.80;99530.00;;;;337510;28;92008;-92
2023/04/26 00:08:55;;;;;;;;;;;11.50;92.70;11.70;99525.00;;;;336473;28;95034;-92
2023/04/26 00:09:07;;;;;;;;;;;11.50;92.90;11.80;99527.00;;;;338740;28;92129;-92
2023/04/26 00:09:19;;;;;;;;;;;11.50;93.00;11.70;99537.00;;;;335153;29;94559;-92
2023/04/26 00:09:31;;;;;;;;;;;11.50;93.00;11.70;99534.00;;;;334998;29;91100;-92
2023/04/26 00:09:43;;;;;;;;;;;11.50;93.00;11.60;99529.00;;;;337726;28;95242;-92
2023/04/26 00:09:55;;;;;;;;;;;11.50;93.00;11.60;99542.00;;;;338844;28;92100;-93
2023/04/26 00:10:08;;;;;;;;;;;11.50;93.00;11.60;99529.00;;;;339022;28;96065;-93
2023/04/26 00:10:20;;;;;;;;;;;11.40;93.10;11.70;99531.00;;;;337455;28;92001;-93
2023/04/26 00:10:32;;;;;;;;;;;11.40;93.00;11.60;99534.00;;;;336401;28;95886;-92
2023/04/26 00:10:45;;;;;;;;;;;11.50;93.10;11.60;99530.00;;;;337385;28;91219;-92
2023/04/26 00:10:56;;;;;;;;;;;11.40;93.20;11.60;99534.00;;;;339042;28;96337;-92
2023/04/26 00:11:08;;;;;;;;;;;11.40;93.10;11.50;99529.00;;;;338735;28;92073;-92
2023/04/26 00:11:20;;;;;;;;;;;11.40;93.30;11.50;99534.00;;;;337732;28;95968;-93
2023/04/26 00:11:32;;;;;;;;;;;11.40;93.40;11.50;99529.00;;;;338873;28;91216;-92
2023/04/26 00:11:44;;;;;;;;;;;11.40;93.20;11.50;99531.00;;;;337592;28;94230;-92
2023/04/26 00:11:56;;;;;;;;;;;11.40;93.30;11.50;99529.00;;;;337522;28;91158;-92
2023/04/26 00:12:10;;;;;;;;;;;11.40;93.40;11.60;99519.00;;;;339007;28;94822;-91
2023/04/26 00:12:22;;;;;;;;;;;11.30;93.30;11.60;99529.00;;;;337419;28;91985;-92
2023/04/26 00:12:35;;;;;;;;;;;11.30;93.40;11.50;99534.00;;;;337718;28;95111;-92
2023/04/26 00:12:47;;;;;;;;;;;11.40;93.50;11.60;99535.00;;;;338825;28;91952;-92
2023/04/26 00:12:59;;;;;;;;;;;11.30;93.40;11.40;99532.00;;;;336447;28;96177;-92
2023/04/26 00:13:11;;;;;;;;;;;11.30;93.80;11.50;99529.00;;;;337538;28;92124;-92
2023/04/26 00:13:23;;;;;;;;;;;11.30;93.80;11.50;99524.00;;;;337790;28;95769;-92
2023/04/26 00:13:35;;;;;;;;;;;11.30;93.80;11.40;99527.00;;;;336194;28;91341;-92
2023/04/26 00:13:47;;;;;;;;;;;11.30;93.90;11.50;99528.00;;;;336444;28;95167;-92
2023/04/26 00:13:59;;;;;;;;;;;11.30;93.70;11.50;99524.00;;;;337507;28;91974;-92
2023/04/26 00:14:11;;;;;;;;;;;11.30;93.60;11.50;99533.00;;;;337739;28;94752;-92
2023/04/26 00:14:23;;;;;;;;;;;11.30;93.60;11.50;99527.00;;;;337564;28;92073;-92
2023/04/26 00:14:35;;;;;;;;;;;11.30;93.70;11.50;99527.00;;;;337733;28;96265;-92
2023/04/26 00:14:46;;;;;;;;;;;11.30;93.70;11.60;99524.00;;;;337583;28;91121;-93
2023/04/26 00:14:59;;;;;;;;;;;11.30;93.80;11.50;99528.00;;;;340418;28;94059;-92
2023/04/26 00:15:11;;;;;;;;;;;11.30;93.80;11.50;99533.00;;;;338893;28;91969;-92
2023/04/26 00:15:23;;;;;;;;;;;11.30;93.90;11.40;99537.00;;;;339066;28;95560;-92
2023/04/26 00:15:35;;;;;;;;;;;11.30;93.90;11.50;99532.00;;;;339094;28;91190;-92
2023/04/26 00:15:47;;;;;;;;;;;11.30;93.90;11.50;99531.00;;;;336539;28;95307;-93
2023/04/26 00:15:59;;;;;;;;;;;11.30;93.90;11.50;99534.00;;;;337738;28;92050;-92
2023/04/26 00:16:12;;;;;;;;;;;11.30;93.90;11.50;99530.00;;;;338144;28;95857;-92
2023/04/26 00:16:24;;;;;;;;;;;11.30;93.90;11.50;99527.00;;;;336411;28;92133;-92
2023/04/26 00:16:36;;;;;;;;;;;11.30;93.90;11.50;99526.00;;;;336890;28;92069;-92
2023/04/26 00:16:48;;;;;;;;;;;11.30;93.90;11.50;99528.00;;;;336610;28;91266;-92
2023/04/26 00:17:02;;;;;;;;;;;11.30;93.90;11.40;99528.00;;;;339387;28;95974;-92
2023/04/26 00:17:14;;;;;;;;;;;11.20;94.20;11.50;99530.00;;;;336475;28;92159;-92
2023/04/26 00:17:26;;;;;;;;;;;11.20;94.10;11.40;99529.00;;;;338175;28;94619;-92
2023/04/26 00:17:37;;;;;;;;;;;11.20;94.50;11.40;99528.00;;;;339180;28;90381;-92
2023/04/26 00:17:50;;;;;;;;;;;11.20;94.20;11.40;99528.00;;;;335416;29;95313;-92
2023/04/26 00:18:02;;;;;;;;;;;11.20;94.20;11.40;99525.00;;;;335372;29;91140;-93
2023/04/26 00:18:15;;;;;;;;;;;11.20;94.10;11.50;99533.00;;;;336809;28;96258;-92
2023/04/26 00:18:27;;;;;;;;;;;11.20;94.10;11.50;99526.00;;;;335268;29;92101;-91
2023/04/26 00:18:39;;;;;;;;;;;11.20;94.20;11.40;99531.00;;;;338053;28;96135;-93
2023/04/26 00:18:51;;;;;;;;;;;11.20;94.30;11.40;99535.00;;;;337908;28;92029;-92
2023/04/26 00:19:03;;;;;;;;;;;11.20;94.30;11.40;99524.00;;;;336697;28;95094;-92
2023/04/26 00:19:16;;;;;;;;;;;11.20;94.30;11.50;99530.00;;;;337923;28;92091;-92
2023/04/26 00:19:28;;;;;;;;;;;11.20;94.30;11.50;99527.00;;;;336817;28;94496;-92
2023/04/26 00:19:40;;;;;;;;;;;11.20;94.20;11.40;99530.00;;;;336493;28;91261;-92
2023/04/26 00:19:51;;;;;;;;;;;11.20;94.30;11.40;99531.00;;;;339391;28;95373;-93
2023/04/26 00:20:06;;;;;;;;;;;11.20;94.50;11.40;99533.00;;;;338890;28;92038;-92
2023/04/26 00:20:19;;;;;;;;;;;11.20;94.30;11.50;99527.00;;;;336305;28;96463;-92
2023/04/26 00:20:30;;;;;;;;;;;11.20;94.30;11.50;99523.00;;;;337471;28;92043;-92
2023/04/26 00:20:42;;;;;;;;;;;11.20;94.20;11.40;99528.00;;;;337732;28;96334;-93
2023/04/26 00:20:54;;;;;;;;;;;11.20;94.30;11.40;99529.00;;;;338855;28;91141;-92
2023/04/26 00:21:06;;;;;;;;;;;11.20;94.40;11.40;99525.00;;;;338986;28;96259;-92
2023/04/26 00:21:18;;;;;;;;;;;11.20;94.50;11.50;99528.00;;;;336193;28;92007;-93
2023/04/26 00:21:30;;;;;;;;;;;11.20;94.40;11.50;99525.00;;;;337760;28;95528;-92
2023/04/26 00:21:42;;;;;;;;;;;11.20;94.60;11.50;99534.00;;;;337433;28;91291;-92
2023/04/26 00:21:54;;;;;;;;;;;11.20;94.30;11.50;99528.00;;;;337726;28;94801;-93
2023/04/26 00:22:07;;;;;;;;;;;11.20;94.40;11.50;99534.00;;;;338791;28;91147;-92
2023/04/26 00:22:19;;;;;;;;;;;11.20;94.30;11.50;99522.00;;;;336394;28;94847;-92
2023/04/26 00:22:31;;;;;;;;;;;11.20;94.30;11.50;99534.00;;;;336002;28;92175;-92
2023/04/26 00:22:43;;;;;;;;;;;11.20;94.40;11.40;99524.00;;;;337708;28;95552;-91
2023/04/26 00:22:55;;;;;;;;;;;11.20;94.60;11.30;99528.00;;;;337579;28;91920;-92
2023/04/26 00:23:09;;;;;;;;;;;11.20;94.70;11.30;99534.00;;;;339006;28;95702;-92
2023/04/26 00:23:21;;;;;;;;;;;11.10;94.70;11.40;99527.00;;;;336240;28;92042;-92
2023/04/26 00:23:35;;;;;;;;;;;11.20;95.00;11.40;99526.00;;;;340404;28;95218;-92
2023/04/26 00:23:47;;;;;;;;;;;11.10;94.80;11.40;99532.00;;;;336172;28;91312;-91
2023/04/26 00:23:59;;;;;;;;;;;11.10;94.60;11.40;99530.00;;;;337722;28;95215;-92
2023/04/26 00:24:11;;;;;;;;;;;11.10;94.70;11.40;99525.00;;;;337459;28;92065;-92
2023/04/26 00:24:22;;;;;;;;;;;11.10;94.70;11.40;99523.00;;;;336411;28;94950;-93
2023/04/26 00:24:34;;;;;;;;;;;11.10;94.80;11.30;99521.00;;;;338885;28;92031;-92
2023/04/26 00:24:46;;;;;;;;;;;11.10;94.90;11.40;99532.00;;;;337737;28;93464;-92
2023/04/26 00:24:58;;;;;;;;;;;11.10;94.80;11.40;99527.00;;;;337581;28;91156;-92
2023/04/26 00:25:11;;;;;;;;;;;11.10;94.70;11.40;99529.00;;;;337698;28;94738;-92
2023/04/26 00:25:23;;;;;;;;;;;11.10;94.70;11.40;99524.00;;;;336151;28;92094;-93
2023/04/26 00:25:35;;;;;;;;;;;11.10;94.70;11.40;99521.00;;;;340426;28;96138;-93
2023/04/26 00:25:47;;;;;;;;;;;11.10;94.60;11.50;99533.00;;;;338816;28;90451;-92
2023/04/26 00:25:59;;;;;;;;;;;11.10;94.60;11.50;99531.00;;;;337866;28;94475;-92
2023/04/26 00:26:11;;;;;;;;;;;11.10;94.70;11.50;99529.00;;;;337482;28;92049;-92
2023/04/26 00:26:23;;;;;;;;;;;11.10;94.70;11.40;99532.00;;;;337666;28;94445;-92
2023/04/26 00:26:35;;;;;;;;;;;11.10;94.70;11.30;99532.00;;;;334910;29;92119;-92
2023/04/26 00:26:47;;;;;;;;;;;11.10;94.70;11.30;99531.00;;;;336458;28;94908;-93
2023/04/26 00:27:00;;;;;;;;;;;11.10;94.80;11.40;99526.00;;;;337522;28;91950;-92
2023/04/26 00:27:12;;;;;;;;;;;11.10;94.80;11.40;99526.00;;;;337721;28;94454;-92
2023/04/26 00:27:24;;;;;;;;;;;11.10;94.90;11.40;99530.00;;;;337471;28;92138;-92
2023/04/26 00:27:36;;;;;;;;;;;11.10;94.80;11.30;99531.00;;;;339118;28;95635;-92
2023/04/26 00:27:48;;;;;;;;;;;11.10;95.20;11.40;99524.00;;;;338754;28;90493;-93
2023/04/26 00:28:00;;;;;;;;;;;11.10;95.00;11.40;99533.00;;;;336435;28;95226;-92
2023/04/26 00:28:12;;;;;;;;;;;11.10;95.00;11.30;99527.00;;;;334889;29;91848;-92
2023/04/26 00:28:24;;;;;;;;;;;11.10;95.40;11.10;99534.00;;;;339080;28;94968;-92
2023/04/26 00:28:36;;;;;;;;;;;11.10;95.50;11.00;99529.00;;;;336147;28;91234;-92
2023/04/26 00:28:48;;;;;;;;;;;11.00;95.60;11.10;99539.00;;;;336397;28;94630;-92
2023/04/26 00:29:03;;;;;;;;;;;11.00;95.50;11.10;99534.00;;;;334878;29;91941;-92
2023/04/26 00:29:15;;;;;;;;;;;11.00;95.40;11.00;99529.00;;;;337719;28;95885;-92
2023/04/26 00:29:26;;;;;;;;;;;11.00;95.50;11.00;99533.00;;;;336142;28;91257;-92
2023/04/26 00:29:38;;;;;;;;;;;11.00;95.60;11.10;99534.00;;;;336541;28;94495;-92
2023/04/26 00:29:52;;;;;;;;;;;10.90;95.50;11.20;99537.00;;;;336129;28;91390;-93
2023/04/26 00:30:05;;;;;;;;;;;11.00;95.50;11.20;99534.00;;;;339129;28;95415;-93
2023/04/26 00:30:17;;;;;;;;;;;10.90;95.50;11.20;99528.00;;;;338844;28;91942;-93
2023/04/26 00:30:29;;;;;;;;;;;10.90;95.50;11.20;99536.00;;;;337633;28;94895;-92
2023/04/26 00:30:46;;;;;;;;;;;10.90;95.60;11.20;99527.00;;;;337556;28;91962;-92
2023/04/26 00:30:58;;;;;;;;;;;10.90;95.60;11.20;99531.00;;;;333802;29;96092;-92
2023/04/26 00:31:16;;;;;;;;;;;11.00;95.70;11.20;99538.00;;;;336209;28;91127;-92
2023/04/26 00:31:28;;;;;;;;;;;10.90;95.60;11.20;99535.00;;;;337715;28;96308;-92
2023/04/26 00:31:40;;;;;;;;;;;10.90;95.70;11.30;99530.00;;;;334833;29;91981;-92
2023/04/26 00:31:52;;;;;;;;;;;10.90;95.60;11.20;99542.00;;;;337713;28;95226;-93
2023/04/26 00:32:04;;;;;;;;;;;10.90;95.60;11.20;99539.00;;;;336150;28;91186;-92
2023/04/26 00:32:16;;;;;;;;;;;10.90;95.60;11.30;99532.00;;;;337793;28;95311;-93
2023/04/26 00:32:29;;;;;;;;;;;10.90;95.50;11.30;99537.00;;;;338607;28;91300;-92
2023/04/26 00:32:41;;;;;;;;;;;10.90;95.60;11.30;99526.00;;;;336463;28;96036;-93
2023/04/26 00:32:53;;;;;;;;;;;10.90;95.60;11.20;99534.00;;;;334933;29;91893;-92
2023/04/26 00:33:05;;;;;;;;;;;10.90;95.90;11.20;99534.00;;;;336480;28;93564;-92
2023/04/26 00:33:17;;;;;;;;;;;10.90;95.90;11.20;99531.00;;;;337470;28;90990;-91
2023/04/26 00:33:29;;;;;;;;;;;10.90;95.90;11.20;99529.00;;;;337766;28;94842;-92
2023/04/26 00:33:41;;;;;;;;;;;10.90;95.90;11.20;99530.00;;;;336108;28;91892;-93
2023/04/26 00:33:53;;;;;;;;;;;10.90;95.90;11.10;99533.00;;;;337689;28;95710;-92
2023/04/26 00:34:05;;;;;;;;;;;10.90;96.00;11.20;99527.00;;;;341506;28;90414;-92
2023/04/26 00:34:17;;;;;;;;;;;10.90;96.00;11.20;99538.00;;;;337789;28;95115;-93
2023/04/26 00:34:33;;;;;;;;;;;10.90;96.00;11.20;99539.00;;;;337432;28;91275;-92
2023/04/26 00:34:44;;;;;;;;;;;10.90;96.00;11.20;99526.00;;;;339056;28;95943;-92
2023/04/26 00:34:56;;;;;;;;;;;10.90;96.00;11.10;99534.00;;;;337540;28;91254;-92
2023/04/26 00:35:08;;;;;;;;;;;10.90;96.30;11.10;99529.00;;;;337792;28;95711;-93
2023/04/26 00:35:20;;;;;;;;;;;10.90;96.30;11.10;99530.00;;;;337302;28;91300;-92
2023/04/26 00:35:32;;;;;;;;;;;10.90;96.30;11.20;99527.00;;;;336456;28;95336;-92
2023/04/26 00:35:44;;;;;;;;;;;10.90;96.10;11.20;99531.00;;;;337524;28;91916;-92
2023/04/26 00:35:56;;;;;;;;;;;10.80;96.10;11.20;99534.00;;;;339190;28;93063;-92
2023/04/26 00:36:07;;;;;;;;;;;10.90;96.10;11.20;99531.00;;;;338950;28;90374;-93
2023/04/26 00:36:19;;;;;;;;;;;10.90;96.10;11.20;99534.00;;;;337656;28;95493;-92
2023/04/26 00:36:31;;;;;;;;;;;10.90;96.00;11.20;99527.00;;;;336164;28;92126;-92
2023/04/26 00:36:43;;;;;;;;;;;10.90;96.00;11.30;99528.00;;;;338991;28;94805;-92
2023/04/26 00:36:55;;;;;;;;;;;10.90;96.00;11.10;99535.00;;;;337384;28;91261;-92
2023/04/26 00:37:07;;;;;;;;;;;10.90;96.00;11.20;99530.00;;;;335596;28;94777;-93
2023/04/26 00:37:18;;;;;;;;;;;10.90;96.00;11.20;99522.00;;;;336278;28;91117;-92
2023/04/26 00:37:30;;;;;;;;;;;10.90;96.00;11.20;99525.00;;;;337765;28;94773;-93
2023/04/26 00:37:42;;;;;;;;;;;10.90;95.90;11.20;99530.00;;;;336177;28;91859;-92
2023/04/26 00:37:54;;;;;;;;;;;10.90;95.90;11.20;99532.00;;;;336556;28;95929;-92
2023/04/26 00:38:06;;;;;;;;;;;10.90;96.10;11.30;99528.00;;;;336358;28;91237;-93
2023/04/26 00:38:18;;;;;;;;;;;10.90;96.00;11.20;99539.00;;;;335263;29;94211;-92
2023/04/26 00:38:30;;;;;;;;;;;10.90;96.10;11.20;99531.00;;;;334985;29;91964;-92
2023/04/26 00:38:42;;;;;;;;;;;10.90;96.10;11.10;99537.00;;;;335128;29;96172;-92
2023/04/26 00:38:54;;;;;;;;;;;10.90;96.30;11.20;99540.00;;;;334926;28;91154;-92
2023/04/26 00:39:07;;;;;;;;;;;10.90;96.10;11.20;99530.00;;;;337704;28;95050;-92
2023/04/26 00:39:20;;;;;;;;;;;10.90;96.30;11.20;99532.00;;;;334975;29;92058;-92
2023/04/26 00:39:32;;;;;;;;;;;10.90;96.30;11.10;99533.00;;;;335329;29;95115;-92
2023/04/26 00:39:44;;;;;;;;;;;10.90;96.40;11.20;99531.00;;;;334789;29;92185;-93
2023/04/26 00:39:56;;;;;;;;;;;10.90;96.30;11.10;99534.00;;;;335188;29;96025;-92
2023/04/26 00:40:09;;;;;;;;;;;10.90;96.30;11.20;99529.00;;;;333829;29;90382;-93
2023/04/26 00:40:21;;;;;;;;;;;10.90;96.30;11.20;99533.00;;;;335215;29;93903;-92
2023/04/26 00:40:34;;;;;;;;;;;10.90;96.30;11.20;99533.00;;;;334971;29;91989;-93
2023/04/26 00:40:46;;;;;;;;;;;10.90;96.20;11.20;99534.00;;;;335145;29;96079;-94
2023/04/26 00:40:57;;;;;;;;;;;10.90;96.20;11.30;99527.00;;;;337742;28;91120;-92
2023/04/26 00:41:09;;;;;;;;;;;10.90;96.10;11.30;99533.00;;;;335292;29;93088;-92
2023/04/26 00:41:21;;;;;;;;;;;10.90;96.10;11.30;99530.00;;;;336141;28;92038;-92
2023/04/26 00:41:33;;;;;;;;;;;10.90;96.20;11.10;99537.00;;;;337782;28;94525;-92
2023/04/26 00:41:46;;;;;;;;;;;10.90;96.40;11.10;99540.00;;;;336269;28;92136;-92
2023/04/26 00:41:58;;;;;;;;;;;10.90;96.40;11.00;99539.00;;;;335203;29;95918;-92
2023/04/26 00:42:10;;;;;;;;;;;10.90;96.40;11.10;99533.00;;;;334954;29;90456;-92
2023/04/26 00:42:22;;;;;;;;;;;10.90;96.40;11.10;99535.00;;;;337794;28;93846;-92
2023/04/26 00:42:34;;;;;;;;;;;10.90;96.50;11.20;99536.00;;;;333713;29;91243;-92
2023/04/26 00:42:45;;;;;;;;;;;10.80;96.40;11.20;99543.00;;;;335172;29;95240;-92
2023/04/26 00:42:58;;;;;;;;;;;10.90;96.50;11.20;99540.00;;;;336112;28;91954;-92
2023/04/26 00:43:09;;;;;;;;;;;10.90;96.40;11.20;99539.00;;;;336432;28;94406;-92
2023/04/26 00:43:21;;;;;;;;;;;10.90;96.40;11.10;99541.00;;;;334969;29;91934;-92
2023/04/26 00:43:33;;;;;;;;;;;10.90;96.50;11.10;99538.00;;;;336415;28;94513;-92
2023/04/26 00:43:45;;;;;;;;;;;10.90;96.60;11.10;99541.00;;;;337458;28;92043;-92
2023/04/26 00:43:57;;;;;;;;;;;10.90;96.70;11.10;99543.00;;;;336422;28;95704;-92
2023/04/26 00:44:09;;;;;;;;;;;10.80;96.50;11.00;99527.00;;;;334950;29;91186;-93
2023/04/26 00:44:20;;;;;;;;;;;10.80;96.70;11.10;99542.00;;;;337751;28;93794;-93
2023/04/26 00:44:32;;;;;;;;;;;10.80;96.50;11.10;99542.00;;;;336059;28;91989;-91
2023/04/26 00:44:44;;;;;;;;;;;10.90;96.70;11.20;99544.00;;;;337674;28;95899;-92
2023/04/26 00:44:56;;;;;;;;;;;10.80;96.60;11.20;99541.00;;;;337487;28;92042;-92
2023/04/26 00:45:08;;;;;;;;;;;10.80;96.50;11.20;99545.00;;;;334975;29;94448;-92
2023/04/26 00:45:20;;;;;;;;;;;10.80;96.90;11.10;99538.00;;;;334834;29;92073;-92
2023/04/26 00:45:32;;;;;;;;;;;10.80;96.80;11.10;99544.00;;;;337698;28;95337;-92
2023/04/26 00:45:44;;;;;;;;;;;10.80;96.70;11.10;99545.00;;;;338788;28;92022;-93
2023/04/26 00:45:56;;;;;;;;;;;10.80;96.90;11.20;99544.00;;;;335242;29;93852;-92
2023/04/26 00:46:08;;;;;;;;;;;10.80;96.70;11.20;99535.00;;;;334909;29;91373;-92
2023/04/26 00:46:20;;;;;;;;;;;10.80;96.60;11.20;99545.00;;;;339113;28;95179;-91
2023/04/26 00:46:32;;;;;;;;;;;10.80;96.60;11.00;99544.00;;;;337456;28;91967;-92
2023/04/26 00:46:44;;;;;;;;;;;10.80;97.00;11.10;99544.00;;;;336427;28;94450;-92
2023/04/26 00:46:56;;;;;;;;;;;10.80;96.90;11.10;99538.00;;;;338813;28;92015;-91
2023/04/26 00:47:08;;;;;;;;;;;10.80;96.90;11.10;99539.00;;;;338982;28;95143;-92
2023/04/26 00:47:20;;;;;;;;;;;10.80;97.10;11.10;99543.00;;;;337501;28;91978;-92
2023/04/26 00:47:32;;;;;;;;;;;10.80;96.90;11.10;99538.00;;;;337744;28;94694;-92
2023/04/26 00:47:44;;;;;;;;;;;10.80;96.90;11.20;99538.00;;;;338736;28;91121;-92
2023/04/26 00:47:56;;;;;;;;;;;10.80;96.80;11.20;99540.00;;;;337734;28;96521;-92
2023/04/26 00:48:07;;;;;;;;;;;10.80;96.90;11.20;99544.00;;;;336180;28;91281;-92
2023/04/26 00:48:20;;;;;;;;;;;10.80;96.90;11.20;99533.00;;;;337764;28;94386;-92
2023/04/26 00:48:32;;;;;;;;;;;10.80;96.80;11.10;99542.00;;;;336188;28;91997;-92
2023/04/26 00:48:44;;;;;;;;;;;10.80;96.80;11.20;99538.00;;;;335135;29;95453;-92
2023/04/26 00:48:56;;;;;;;;;;;10.80;96.80;11.20;99539.00;;;;336003;28;91296;-92
2023/04/26 00:49:08;;;;;;;;;;;10.80;96.90;11.20;99539.00;;;;334976;29;96146;-92
2023/04/26 00:49:22;;;;;;;;;;;10.80;96.90;11.20;99543.00;;;;337441;28;92031;-93
2023/04/26 00:49:33;;;;;;;;;;;10.80;96.90;11.20;99543.00;;;;335072;29;95527;-92
2023/04/26 00:49:45;;;;;;;;;;;10.80;96.80;11.20;99536.00;;;;335899;28;92126;-93
2023/04/26 00:49:58;;;;;;;;;;;10.80;96.90;11.20;99538.00;;;;336399;28;94897;-92
2023/04/26 00:50:10;;;;;;;;;;;10.80;96.90;11.20;99530.00;;;;336192;28;91406;-93
2023/04/26 00:50:21;;;;;;;;;;;10.80;97.00;11.30;99536.00;;;;337823;28;93760;-93
2023/04/26 00:50:33;;;;;;;;;;;10.80;96.90;11.20;99540.00;;;;334903;29;91270;-93
2023/04/26 00:50:46;;;;;;;;;;;10.80;96.90;11.20;99538.00;;;;336299;28;94756;-92
2023/04/26 00:50:58;;;;;;;;;;;10.80;96.90;11.20;99538.00;;;;334903;29;91942;-92
2023/04/26 00:51:10;;;;;;;;;;;10.80;96.90;11.20;99531.00;;;;336331;28;95798;-93
2023/04/26 00:51:22;;;;;;;;;;;10.80;96.90;11.20;99542.00;;;;336005;28;92064;-92
2023/04/26 00:51:34;;;;;;;;;;;10.80;97.00;11.20;99538.00;;;;335153;29;93449;-93
2023/04/26 00:51:45;;;;;;;;;;;10.80;97.00;11.20;99541.00;;;;337451;28;91891;-92
2023/04/26 00:51:57;;;;;;;;;;;10.80;97.00;11.20;99541.00;;;;335121;29;96097;-93
2023/04/26 00:52:09;;;;;;;;;;;10.80;97.10;11.10;99543.00;;;;336135;28;90511;-92
2023/04/26 00:52:21;;;;;;;;;;;10.80;97.10;11.20;99535.00;;;;335119;29;94560;-92
2023/04/26 00:52:33;;;;;;;;;;;10.80;97.10;11.20;99544.00;;;;333591;29;92099;-92
2023/04/26 00:52:46;;;;;;;;;;;10.80;97.00;11.20;99542.00;;;;335153;29;96147;-93
2023/04/26 00:52:57;;;;;;;;;;;10.80;97.00;11.30;99546.00;;;;334862;29;91844;-93
2023/04/26 00:53:09;;;;;;;;;;;10.80;97.00;11.20;99542.00;;;;336451;28;94492;-92
2023/04/26 00:53:22;;;;;;;;;;;10.80;97.10;11.20;99535.00;;;;338871;28;91921;-93
2023/04/26 00:53:34;;;;;;;;;;;10.80;97.10;11.30;99544.00;;;;336351;28;95676;-92
2023/04/26 00:53:46;;;;;;;;;;;10.80;97.10;11.30;99544.00;;;;336076;28;92081;-92
2023/04/26 00:53:58;;;;;;;;;;;10.80;97.10;11.30;99537.00;;;;336380;28;94894;-93
2023/04/26 00:54:11;;;;;;;;;;;10.80;97.10;11.20;99547.00;;;;337449;28;90507;-93
2023/04/26 00:54:24;;;;;;;;;;;10.90;97.10;11.30;99546.00;;;;336377;28;95586;-92
2023/04/26 00:54:36;;;;;;;;;;;10.80;97.10;11.30;99538.00;;;;337431;28;92058;-92
2023/04/26 00:54:48;;;;;;;;;;;10.80;97.10;11.30;99547.00;;;;337641;28;95912;-92
2023/04/26 00:55:00;;;;;;;;;;;10.90;97.10;11.30;99551.00;;;;336214;28;91172;-92
2023/04/26 00:55:12;;;;;;;;;;;10.90;97.10;11.30;99547.00;;;;335000;29;95883;-93
2023/04/26 00:55:25;;;;;;;;;;;10.90;97.10;11.30;99544.00;;;;338781;28;91975;-93
2023/04/26 00:55:37;;;;;;;;;;;10.90;97.00;11.30;99546.00;;;;336425;28;95512;-92
2023/04/26 00:55:50;;;;;;;;;;;10.90;97.00;11.30;99548.00;;;;334880;29;92065;-92
2023/04/26 00:56:02;;;;;;;;;;;10.90;97.10;11.20;99542.00;;;;336477;28;94971;-92
2023/04/26 00:56:14;;;;;;;;;;;10.90;97.10;11.20;99541.00;;;;337492;28;91301;-92
2023/04/26 00:56:26;;;;;;;;;;;10.90;97.20;11.10;99549.00;;;;336322;28;95400;-93
2023/04/26 00:56:38;;;;;;;;;;;10.90;97.30;11.10;99543.00;;;;334902;29;91959;-92
2023/04/26 00:56:51;;;;;;;;;;;10.90;97.40;11.10;99547.00;;;;337773;28;96101;-93
2023/04/26 00:57:05;;;;;;;;;;;10.90;97.40;11.10;99541.00;;;;337211;28;91224;-92
2023/04/26 00:57:17;;;;;;;;;;;10.90;97.50;11.00;99543.00;;;;335183;29;96487;-92
2023/04/26 00:57:30;;;;;;;;;;;10.80;97.50;11.00;99543.00;;;;337485;28;91878;-92
2023/04/26 00:57:43;;;;;;;;;;;10.80;97.50;11.10;99548.00;;;;336259;28;95732;-92
2023/04/26 00:57:55;;;;;;;;;;;10.80;97.50;11.10;99545.00;;;;334953;29;91933;-92
2023/04/26 00:58:07;;;;;;;;;;;10.80;97.40;11.10;99532.00;;;;336425;28;96120;-92
2023/04/26 00:58:19;;;;;;;;;;;10.80;97.60;11.00;99546.00;;;;337528;28;91169;-92
2023/04/26 00:58:30;;;;;;;;;;;10.80;97.80;11.10;99546.00;;;;336453;28;93682;-92
2023/04/26 00:58:42;;;;;;;;;;;10.80;97.80;11.10;99546.00;;;;337618;28;91749;-92
2023/04/26 00:58:55;;;;;;;;;;;10.80;97.70;11.10;99544.00;;;;337968;28;95145;-92
2023/04/26 00:59:07;;;;;;;;;;;10.80;97.80;11.10;99554.00;;;;338931;28;92041;-93
2023/04/26 00:59:19;;;;;;;;;;;10.80;97.70;11.10;99540.00;;;;334059;29;96241;-92
2023/04/26 00:59:34;;;;;;;;;;;10.80;97.70;11.10;99543.00;;;;336438;28;92030;-92
2023/04/26 00:59:45;;;;;;;;;;;10.80;97.80;11.10;99551.00;;;;339300;28;92297;-92
2023/04/26 00:59:57;;;;;;;;;;;10.80;97.80;11.00;99549.00;;;;337738;28;92173;-92
2023/04/26 01:00:10;;;;;;;;;;;10.80;98.00;11.10;99551.00;;;;336594;28;95627;-92
2023/04/26 01:00:22;;;;;;;;;;;10.80;97.90;11.00;99553.00;;;;337709;28;91314;-92
2023/04/26 01:00:34;;;;;;;;;;;10.80;97.80;11.00;99547.00;;;;336745;28;94061;-93
2023/04/26 01:00:46;;;;;;;;;;;10.80;97.90;10.90;99536.00;;;;335067;29;91935;-92